McAlester, OK

10:48 AM CDT on April 21, 2015 (GMT -0500)
McAlester Regional | | Change Station
CLOSE
Current Station
Airport
Location: McAlester,
Elevation: 768 ft
Nearby Weather Stations

Elev 768 ft 34.88 °N, 95.78 °W | Updated 55 minutes ago

Mostly Cloudy
Mostly Cloudy
54 °F
Feels Like 54 °F
N
5
Wind Variable Wind from SE

Today
High -- | Low -- °F
--% Chance of Precip.
Yesterday
High -- | Low -- °F
Precip. -- in
6:44 AM 8:00 PM
Waxing Crescent, 11% visible
Pressure 30.01 in
Visibility 10.0 miles
Clouds Mostly Cloudy 9000 ft
Overcast 11000 ft
Dew Point 47 °F
Humidity 77%
Rainfall 0.01 in
Snow Depth Not available.
UV 1 out of 12
Pollen 8.50 out of 12
Air Quality Not available.
Flu Activity Regional
METAR KMLC 211453Z AUTO 14004KT 10SM -RA BKN090 OVC110 12/08 A3002 RMK AO2 SLP163 P0001 60001 T01220083 50010

More Conditions Fewer Conditions

Pressure 30.01 in
Visibility 10.0 miles
Clouds Mostly Cloudy 9000 ft
Overcast 11000 ft
Dew Point 47 °F
Humidity 77%
Rainfall 0.01 in
Snow Depth Not available.
UV 1 out of 12
Pollen 8.50 out of 12
Air Quality Not available.
Flu Activity Regional
METAR KMLC 211453Z AUTO 14004KT 10SM -RA BKN090 OVC110 12/08 A3002 RMK AO2 SLP163 P0001 60001 T01220083 50010

More Conditions Fewer Conditions

Nowcast | as of 10:01 am CDT on April 21, 2015

At 10:00 am...Doppler radars continued to indicate scattered light showers passing over the area. The showers have mainly shifted east and are impacting northwest Arkansas...as well as far eastern and southeast Oklahoma. Movement remains toward the east around 35 mph. Through 12:00 PM...passing light showers and occasional sprinkles will be remain possible for locations primarily along and south of a Bentonville to Ada line. Average hourly rainfall from a trace to a few hundredths of an inch will remain common with activity. The entire area will continue to gradually shift east through midday.

×

10-Day Weather Forecast

Almanac

Astronomy

Apr. 21, 2015 Rise Set
Actual Time
Civil Twilight
Nautical Twilight
Astronomical Twilight
Moon
Length of Visible Light
Length of Day
Tomorrow will be .
, % of the Moon is Illuminated

Today's Extremes

State Highs State Lows

Community

WunderPhotos

Upload Photos

1,815,428 photos uploaded!

WunderBlogs® & News

Nearby

Air Quality

  Air Quality AQ Index Pollutant
Not available.

Snow Depth

Station Depth Elevation

Earthquake Activity

City Distance Mag. Time & Date
Minimum magnitude displayed is 2.5.

Coastal Water Temperatures

Place Temperature

Stations

Nearby Weather Stations

Station Location Temp. Windchill Dew Point Humidity Wind Precip. Elev Updated Type